sensor_id;sensor_type;location;lat;lon;timestamp;pressure;altitude;pressure_sealevel;temperature;humidity
21566;BME280;10943;48.738;9.320;2022-10-31T00:01:36;99306.31;;;14.11;68.98
21566;BME280;10943;48.738;9.320;2022-10-31T00:04:05;99307.91;;;14.07;68.77
21566;BME280;10943;48.738;9.320;2022-10-31T00:06:32;99317.81;;;13.97;68.76
21566;BME280;10943;48.738;9.320;2022-10-31T00:09:03;99307.56;;;14.03;68.38
21566;BME280;10943;48.738;9.320;2022-10-31T00:11:31;99309.28;;;14.04;69.12
21566;BME280;10943;48.738;9.320;2022-10-31T00:13:59;99310.84;;;13.83;69.21
21566;BME280;10943;48.738;9.320;2022-10-31T00:16:27;99308.44;;;13.58;70.71
21566;BME280;10943;48.738;9.320;2022-10-31T00:18:59;99309.84;;;13.89;69.78
21566;BME280;10943;48.738;9.320;2022-10-31T00:21:30;99311.72;;;14.17;68.69
21566;BME280;10943;48.738;9.320;2022-10-31T00:23:59;99311.88;;;14.11;68.53
21566;BME280;10943;48.738;9.320;2022-10-31T00:26:28;99313.22;;;14.25;68.18
21566;BME280;10943;48.738;9.320;2022-10-31T00:28:59;99299.84;;;14.61;66.56
21566;BME280;10943;48.738;9.320;2022-10-31T00:31:27;99308.97;;;14.57;66.74
21566;BME280;10943;48.738;9.320;2022-10-31T00:33:57;99309.66;;;14.47;67.05
21566;BME280;10943;48.738;9.320;2022-10-31T00:36:26;99319.16;;;14.12;67.33
21566;BME280;10943;48.738;9.320;2022-10-31T00:38:57;99310.94;;;13.88;68.68
21566;BME280;10943;48.738;9.320;2022-10-31T00:41:25;99308.97;;;13.72;68.49
21566;BME280;10943;48.738;9.320;2022-10-31T00:43:52;99312.44;;;13.21;69.23
21566;BME280;10943;48.738;9.320;2022-10-31T00:46:20;99315.19;;;13.33;69.91
21566;BME280;10943;48.738;9.320;2022-10-31T00:48:50;99318.03;;;13.50;69.85
21566;BME280;10943;48.738;9.320;2022-10-31T00:51:18;99317.94;;;13.45;69.92
21566;BME280;10943;48.738;9.320;2022-10-31T00:53:45;99313.38;;;13.39;69.78
21566;BME280;10943;48.738;9.320;2022-10-31T00:56:12;99307.63;;;13.57;69.46
21566;BME280;10943;48.738;9.320;2022-10-31T00:58:39;99309.19;;;13.53;69.35
21566;BME280;10943;48.738;9.320;2022-10-31T01:01:08;99314.28;;;13.56;68.40
21566;BME280;10943;48.738;9.320;2022-10-31T01:03:36;99314.00;;;13.58;69.27
21566;BME280;10943;48.738;9.320;2022-10-31T01:06:12;99303.31;;;13.66;68.25
21566;BME280;10943;48.738;9.320;2022-10-31T01:08:40;99310.44;;;13.74;68.26
21566;BME280;10943;48.738;9.320;2022-10-31T01:11:21;99312.88;;;13.70;67.88
21566;BME280;10943;48.738;9.320;2022-10-31T01:13:53;99312.31;;;13.57;67.75
21566;BME280;10943;48.738;9.320;2022-10-31T01:16:24;99307.31;;;13.42;67.74
21566;BME280;10943;48.738;9.320;2022-10-31T01:18:52;99306.38;;;13.24;67.80
21566;BME280;10943;48.738;9.320;2022-10-31T01:21:26;99306.56;;;13.34;68.38
21566;BME280;10943;48.738;9.320;2022-10-31T01:23:57;99305.63;;;13.41;68.72
21566;BME280;10943;48.738;9.320;2022-10-31T01:26:29;99303.88;;;13.51;68.55
21566;BME280;10943;48.738;9.320;2022-10-31T01:29:08;99304.53;;;13.42;67.84
21566;BME280;10943;48.738;9.320;2022-10-31T01:31:38;99306.41;;;13.53;67.68
21566;BME280;10943;48.738;9.320;2022-10-31T01:34:06;99307.09;;;13.31;67.39
21566;BME280;10943;48.738;9.320;2022-10-31T01:36:37;99303.00;;;13.22;68.42
21566;BME280;10943;48.738;9.320;2022-10-31T01:39:13;99307.03;;;13.02;68.88
21566;BME280;10943;48.738;9.320;2022-10-31T01:41:46;99307.72;;;12.81;70.30
21566;BME280;10943;48.738;9.320;2022-10-31T01:46:59;99302.63;;;12.90;69.46
21566;BME280;10943;48.738;9.320;2022-10-31T01:49:57;99295.31;;;13.00;69.42
21566;BME280;10943;48.738;9.320;2022-10-31T01:52:44;99301.25;;;13.04;69.27
21566;BME280;10943;48.738;9.320;2022-10-31T01:55:26;99293.69;;;13.16;69.24
21566;BME280;10943;48.738;9.320;2022-10-31T01:58:02;99285.19;;;13.23;68.70
21566;BME280;10943;48.738;9.320;2022-10-31T02:00:32;99294.97;;;13.26;68.67
21566;BME280;10943;48.738;9.320;2022-10-31T02:02:59;99290.75;;;12.82;69.79
21566;BME280;10943;48.738;9.320;2022-10-31T02:05:30;99287.69;;;12.96;69.84
21566;BME280;10943;48.738;9.320;2022-10-31T02:10:33;99292.44;;;13.24;68.59
21566;BME280;10943;48.738;9.320;2022-10-31T02:13:05;99290.38;;;13.31;67.99
21566;BME280;10943;48.738;9.320;2022-10-31T02:15:45;99290.44;;;13.48;67.83
21566;BME280;10943;48.738;9.320;2022-10-31T02:18:14;99286.09;;;13.69;67.33
21566;BME280;10943;48.738;9.320;2022-10-31T02:21:04;99286.88;;;13.82;66.77
21566;BME280;10943;48.738;9.320;2022-10-31T02:27:13;99288.44;;;13.32;67.45
21566;BME280;10943;48.738;9.320;2022-10-31T02:30:12;99297.13;;;13.07;68.66
21566;BME280;10943;48.738;9.320;2022-10-31T02:32:54;99287.69;;;12.96;69.42
21566;BME280;10943;48.738;9.320;2022-10-31T02:36:13;99293.31;;;13.25;68.60
21566;BME280;10943;48.738;9.320;2022-10-31T02:47:58;99291.16;;;13.15;68.15
21566;BME280;10943;48.738;9.320;2022-10-31T02:50:34;99285.88;;;13.01;68.14
21566;BME280;10943;48.738;9.320;2022-10-31T02:53:06;99294.03;;;12.91;67.51
21566;BME280;10943;48.738;9.320;2022-10-31T02:58:11;99292.47;;;12.83;69.25
21566;BME280;10943;48.738;9.320;2022-10-31T03:01:10;99287.84;;;12.89;68.99
21566;BME280;10943;48.738;9.320;2022-10-31T03:07:21;99289.16;;;12.98;68.55
21566;BME280;10943;48.738;9.320;2022-10-31T03:10:20;99286.97;;;13.29;67.43
21566;BME280;10943;48.738;9.320;2022-10-31T03:13:35;99281.09;;;13.14;67.66
21566;BME280;10943;48.738;9.320;2022-10-31T03:16:44;99285.94;;;12.90;68.57
21566;BME280;10943;48.738;9.320;2022-10-31T03:19:29;99288.72;;;12.90;68.47
21566;BME280;10943;48.738;9.320;2022-10-31T03:22:19;99285.06;;;12.89;67.62
21566;BME280;10943;48.738;9.320;2022-10-31T03:24:51;99278.06;;;12.75;68.58
21566;BME280;10943;48.738;9.320;2022-10-31T03:27:26;99279.81;;;12.64;68.22
21566;BME280;10943;48.738;9.320;2022-10-31T03:29:59;99280.50;;;12.71;68.82
21566;BME280;10943;48.738;9.320;2022-10-31T03:32:49;99278.34;;;12.61;68.82
21566;BME280;10943;48.738;9.320;2022-10-31T03:35:25;99288.00;;;12.70;69.12
21566;BME280;10943;48.738;9.320;2022-10-31T03:37:56;99288.00;;;12.70;69.24
21566;BME280;10943;48.738;9.320;2022-10-31T03:40:29;99286.84;;;12.54;69.12
21566;BME280;10943;48.738;9.320;2022-10-31T03:43:04;99284.06;;;12.54;69.11
21566;BME280;10943;48.738;9.320;2022-10-31T03:46:01;99281.50;;;12.53;68.91
21566;BME280;10943;48.738;9.320;2022-10-31T03:48:30;99290.72;;;12.42;69.04
21566;BME280;10943;48.738;9.320;2022-10-31T03:51:16;99290.09;;;12.40;68.90
21566;BME280;10943;48.738;9.320;2022-10-31T03:54:03;99281.66;;;12.23;69.23
21566;BME280;10943;48.738;9.320;2022-10-31T03:57:01;99281.34;;;11.88;70.71
21566;BME280;10943;48.738;9.320;2022-10-31T03:59:45;99287.84;;;11.70;71.14
21566;BME280;10943;48.738;9.320;2022-10-31T04:02:19;99290.13;;;11.73;71.18
21566;BME280;10943;48.738;9.320;2022-10-31T04:04:49;99289.41;;;11.66;70.99
21566;BME280;10943;48.738;9.320;2022-10-31T04:07:20;99280.06;;;11.61;70.84
21566;BME280;10943;48.738;9.320;2022-10-31T04:09:51;99269.88;;;11.43;72.60
21566;BME280;10943;48.738;9.320;2022-10-31T04:12:22;99285.47;;;11.44;72.93
21566;BME280;10943;48.738;9.320;2022-10-31T04:15:10;99287.00;;;11.82;71.24
21566;BME280;10943;48.738;9.320;2022-10-31T04:17:44;99279.16;;;11.91;70.52
21566;BME280;10943;48.738;9.320;2022-10-31T04:20:17;99284.25;;;11.94;70.23
21566;BME280;10943;48.738;9.320;2022-10-31T04:22:44;99285.75;;;11.96;69.44
21566;BME280;10943;48.738;9.320;2022-10-31T04:25:12;99274.53;;;11.72;70.08
21566;BME280;10943;48.738;9.320;2022-10-31T04:27:39;99279.88;;;11.74;70.95
21566;BME280;10943;48.738;9.320;2022-10-31T04:30:09;99273.97;;;11.82;70.15
21566;BME280;10943;48.738;9.320;2022-10-31T04:32:39;99269.50;;;11.93;70.30
21566;BME280;10943;48.738;9.320;2022-10-31T04:35:07;99270.25;;;12.36;68.86
21566;BME280;10943;48.738;9.320;2022-10-31T04:37:34;99266.19;;;12.03;69.56
21566;BME280;10943;48.738;9.320;2022-10-31T04:40:04;99275.78;;;11.88;69.83
21566;BME280;10943;48.738;9.320;2022-10-31T04:42:38;99268.16;;;11.84;70.70
21566;BME280;10943;48.738;9.320;2022-10-31T04:45:06;99262.88;;;11.94;69.47
21566;BME280;10943;48.738;9.320;2022-10-31T04:47:35;99259.97;;;11.89;69.50
21566;BME280;10943;48.738;9.320;2022-10-31T04:50:03;99269.13;;;11.89;69.40
21566;BME280;10943;48.738;9.320;2022-10-31T04:52:38;99251.63;;;11.89;70.49
21566;BME280;10943;48.738;9.320;2022-10-31T04:55:08;99249.63;;;11.96;70.23
21566;BME280;10943;48.738;9.320;2022-10-31T04:57:55;99249.63;;;11.96;69.36
21566;BME280;10943;48.738;9.320;2022-10-31T05:00:24;99246.47;;;12.04;69.29
21566;BME280;10943;48.738;9.320;2022-10-31T05:02:55;99249.47;;;11.91;69.30
21566;BME280;10943;48.738;9.320;2022-10-31T05:05:31;99245.38;;;12.05;69.10
21566;BME280;10943;48.738;9.320;2022-10-31T05:08:02;99252.44;;;11.78;69.24
21566;BME280;10943;48.738;9.320;2022-10-31T05:10:32;99250.13;;;11.51;70.28
21566;BME280;10943;48.738;9.320;2022-10-31T05:13:03;99246.50;;;11.62;70.61
21566;BME280;10943;48.738;9.320;2022-10-31T05:15:55;99249.66;;;11.66;70.28
21566;BME280;10943;48.738;9.320;2022-10-31T05:18:41;99248.06;;;11.58;70.71
21566;BME280;10943;48.738;9.320;2022-10-31T05:21:27;99247.25;;;11.27;72.05
21566;BME280;10943;48.738;9.320;2022-10-31T05:23:59;99242.56;;;11.28;71.97
21566;BME280;10943;48.738;9.320;2022-10-31T05:26:27;99243.00;;;11.55;71.13
21566;BME280;10943;48.738;9.320;2022-10-31T05:28:55;99238.44;;;11.72;69.90
21566;BME280;10943;48.738;9.320;2022-10-31T05:31:23;99240.63;;;11.94;69.42
21566;BME280;10943;48.738;9.320;2022-10-31T05:33:52;99239.19;;;11.92;69.41
21566;BME280;10943;48.738;9.320;2022-10-31T05:36:20;99235.00;;;11.47;70.50
21566;BME280;10943;48.738;9.320;2022-10-31T05:38:56;99235.97;;;11.41;70.73
21566;BME280;10943;48.738;9.320;2022-10-31T05:41:50;99234.66;;;11.13;71.80
21566;BME280;10943;48.738;9.320;2022-10-31T05:44:25;99231.84;;;11.31;70.90
21566;BME280;10943;48.738;9.320;2022-10-31T05:47:10;99227.13;;;11.32;70.50
21566;BME280;10943;48.738;9.320;2022-10-31T05:49:56;99230.25;;;10.93;72.43
21566;BME280;10943;48.738;9.320;2022-10-31T05:52:24;99232.16;;;11.23;71.21
21566;BME280;10943;48.738;9.320;2022-10-31T05:54:59;99232.59;;;11.50;70.19
21566;BME280;10943;48.738;9.320;2022-10-31T05:57:33;99233.47;;;11.51;69.38
21566;BME280;10943;48.738;9.320;2022-10-31T06:00:01;99229.66;;;11.33;70.40
21566;BME280;10943;48.738;9.320;2022-10-31T06:02:33;99232.22;;;11.47;70.72
21566;BME280;10943;48.738;9.320;2022-10-31T06:05:19;99235.97;;;10.80;72.63
21566;BME280;10943;48.738;9.320;2022-10-31T06:07:47;99234.56;;;10.89;72.20
21566;BME280;10943;48.738;9.320;2022-10-31T06:10:15;99233.38;;;11.27;71.66
21566;BME280;10943;48.738;9.320;2022-10-31T06:12:44;99235.22;;;11.33;71.12
21566;BME280;10943;48.738;9.320;2022-10-31T06:15:28;99227.78;;;11.46;70.55
21566;BME280;10943;48.738;9.320;2022-10-31T06:18:05;99237.09;;;11.63;70.19
21566;BME280;10943;48.738;9.320;2022-10-31T06:20:37;99231.94;;;11.91;69.43
21566;BME280;10943;48.738;9.320;2022-10-31T06:23:05;99225.66;;;11.83;69.50
21566;BME280;10943;48.738;9.320;2022-10-31T06:25:34;99232.53;;;11.69;70.22
21566;BME280;10943;48.738;9.320;2022-10-31T06:28:04;99231.34;;;11.77;70.00
21566;BME280;10943;48.738;9.320;2022-10-31T06:31:10;99228.06;;;11.68;70.08
21566;BME280;10943;48.738;9.320;2022-10-31T06:33:37;99226.13;;;11.68;70.16
21566;BME280;10943;48.738;9.320;2022-10-31T06:36:08;99229.53;;;11.94;69.23
21566;BME280;10943;48.738;9.320;2022-10-31T06:38:36;99235.72;;;11.96;69.64
21566;BME280;10943;48.738;9.320;2022-10-31T06:41:07;99235.59;;;12.03;69.15
21566;BME280;10943;48.738;9.320;2022-10-31T06:43:42;99241.03;;;12.21;69.09
21566;BME280;10943;48.738;9.320;2022-10-31T06:46:22;99235.47;;;12.10;69.29
21566;BME280;10943;48.738;9.320;2022-10-31T06:49:04;99241.63;;;12.35;68.31
21566;BME280;10943;48.738;9.320;2022-10-31T06:51:53;99252.16;;;12.86;66.80
21566;BME280;10943;48.738;9.320;2022-10-31T06:54:21;99244.91;;;12.85;66.74
21566;BME280;10943;48.738;9.320;2022-10-31T06:56:49;99240.63;;;12.53;67.48
21566;BME280;10943;48.738;9.320;2022-10-31T06:59:16;99238.00;;;12.47;67.72
21566;BME280;10943;48.738;9.320;2022-10-31T07:02:05;99239.44;;;12.37;68.41
21566;BME280;10943;48.738;9.320;2022-10-31T07:04:33;99238.69;;;12.54;67.97
21566;BME280;10943;48.738;9.320;2022-10-31T07:07:00;99241.06;;;12.74;67.43
21566;BME280;10943;48.738;9.320;2022-10-31T07:09:29;99239.44;;;12.90;66.93
21566;BME280;10943;48.738;9.320;2022-10-31T07:12:00;99237.91;;;13.11;66.63
21566;BME280;10943;48.738;9.320;2022-10-31T07:14:36;99236.22;;;13.10;66.61
21566;BME280;10943;48.738;9.320;2022-10-31T07:17:03;99233.19;;;12.71;67.78
21566;BME280;10943;48.738;9.320;2022-10-31T07:19:34;99240.06;;;12.92;68.07
21566;BME280;10943;48.738;9.320;2022-10-31T07:22:02;99235.16;;;13.40;66.33
21566;BME280;10943;48.738;9.320;2022-10-31T07:24:30;99239.53;;;13.53;65.36
21566;BME280;10943;48.738;9.320;2022-10-31T07:27:16;99242.59;;;13.68;65.70
21566;BME280;10943;48.738;9.320;2022-10-31T07:29:46;99246.84;;;14.05;64.85
21566;BME280;10943;48.738;9.320;2022-10-31T07:32:15;99246.38;;;14.30;64.03
21566;BME280;10943;48.738;9.320;2022-10-31T07:34:50;99239.56;;;14.21;63.15
21566;BME280;10943;48.738;9.320;2022-10-31T07:37:30;99243.88;;;14.51;61.96
21566;BME280;10943;48.738;9.320;2022-10-31T07:40:52;99240.47;;;14.10;63.58
21566;BME280;10943;48.738;9.320;2022-10-31T07:43:20;99234.03;;;14.26;63.93
21566;BME280;10943;48.738;9.320;2022-10-31T07:46:11;99230.97;;;14.45;63.49
21566;BME280;10943;48.738;9.320;2022-10-31T07:49:07;99230.00;;;14.56;63.25
21566;BME280;10943;48.738;9.320;2022-10-31T07:52:13;99229.47;;;14.98;62.23
21566;BME280;10943;48.738;9.320;2022-10-31T07:55:03;99238.72;;;15.04;60.60
21566;BME280;10943;48.738;9.320;2022-10-31T07:57:34;99236.81;;;15.10;61.62
21566;BME280;10943;48.738;9.320;2022-10-31T08:00:09;99236.16;;;15.52;61.42
21566;BME280;10943;48.738;9.320;2022-10-31T08:02:42;99241.53;;;15.86;59.38
21566;BME280;10943;48.738;9.320;2022-10-31T08:05:37;99249.63;;;15.88;59.32
21566;BME280;10943;48.738;9.320;2022-10-31T08:08:39;99244.13;;;16.36;57.37
21566;BME280;10943;48.738;9.320;2022-10-31T08:11:08;99246.69;;;16.05;58.71
21566;BME280;10943;48.738;9.320;2022-10-31T08:13:38;99246.53;;;16.70;57.29
21566;BME280;10943;48.738;9.320;2022-10-31T08:16:27;99239.97;;;16.43;57.32
21566;BME280;10943;48.738;9.320;2022-10-31T08:19:00;99230.47;;;16.97;56.74
21566;BME280;10943;48.738;9.320;2022-10-31T08:21:29;99234.28;;;17.75;53.67
21566;BME280;10943;48.738;9.320;2022-10-31T08:24:05;99237.09;;;18.27;51.76
21566;BME280;10943;48.738;9.320;2022-10-31T08:26:33;99237.94;;;18.27;52.68
21566;BME280;10943;48.738;9.320;2022-10-31T08:29:08;99238.97;;;18.62;52.58
21566;BME280;10943;48.738;9.320;2022-10-31T08:31:44;99231.72;;;19.27;50.39
21566;BME280;10943;48.738;9.320;2022-10-31T08:34:34;99233.63;;;20.16;47.78
21566;BME280;10943;48.738;9.320;2022-10-31T08:37:21;99233.53;;;20.26;47.99
21566;BME280;10943;48.738;9.320;2022-10-31T08:39:53;99224.16;;;21.09;46.91
21566;BME280;10943;48.738;9.320;2022-10-31T08:42:21;99223.53;;;21.55;43.51
21566;BME280;10943;48.738;9.320;2022-10-31T08:45:13;99223.56;;;21.12;43.87
21566;BME280;10943;48.738;9.320;2022-10-31T08:47:41;99220.09;;;20.96;44.34
21566;BME280;10943;48.738;9.320;2022-10-31T08:50:10;99225.03;;;21.48;43.71
21566;BME280;10943;48.738;9.320;2022-10-31T08:52:37;99222.00;;;22.15;42.82
21566;BME280;10943;48.738;9.320;2022-10-31T08:55:26;99211.66;;;22.57;41.64
21566;BME280;10943;48.738;9.320;2022-10-31T08:58:10;99210.19;;;22.74;41.15
21566;BME280;10943;48.738;9.320;2022-10-31T09:00:50;99210.19;;;22.74;39.94
21566;BME280;10943;48.738;9.320;2022-10-31T09:03:24;99208.91;;;22.66;41.59
21566;BME280;10943;48.738;9.320;2022-10-31T09:06:01;99206.59;;;23.10;40.82
21566;BME280;10943;48.738;9.320;2022-10-31T09:08:32;99200.94;;;23.10;40.00
21566;BME280;10943;48.738;9.320;2022-10-31T09:11:02;99200.34;;;22.71;40.53
21566;BME280;10943;48.738;9.320;2022-10-31T09:13:52;99202.56;;;23.16;39.78
21566;BME280;10943;48.738;9.320;2022-10-31T09:16:26;99210.09;;;23.58;38.71
21566;BME280;10943;48.738;9.320;2022-10-31T09:18:54;99213.75;;;23.21;39.06
21566;BME280;10943;48.738;9.320;2022-10-31T09:21:22;99213.13;;;22.97;40.30
21566;BME280;10943;48.738;9.320;2022-10-31T09:23:56;99218.91;;;21.98;41.49
21566;BME280;10943;48.738;9.320;2022-10-31T09:26:24;99205.03;;;22.48;40.21
21566;BME280;10943;48.738;9.320;2022-10-31T09:29:04;99209.78;;;22.34;40.86
21566;BME280;10943;48.738;9.320;2022-10-31T09:31:32;99210.38;;;22.36;40.64
21566;BME280;10943;48.738;9.320;2022-10-31T09:34:24;99210.97;;;21.67;42.67
21566;BME280;10943;48.738;9.320;2022-10-31T09:37:03;99207.19;;;21.71;42.67
21566;BME280;10943;48.738;9.320;2022-10-31T09:39:34;99199.19;;;22.58;41.30
21566;BME280;10943;48.738;9.320;2022-10-31T09:51:15;99185.31;;;25.20;35.72
21566;BME280;10943;48.738;9.320;2022-10-31T09:57:13;99193.69;;;26.31;35.00
21566;BME280;10943;48.738;9.320;2022-10-31T09:59:47;99185.03;;;27.05;33.16
21566;BME280;10943;48.738;9.320;2022-10-31T10:02:35;99193.22;;;27.06;33.25
21566;BME280;10943;48.738;9.320;2022-10-31T10:05:14;99185.97;;;27.17;32.99
21566;BME280;10943;48.738;9.320;2022-10-31T10:08:19;99189.13;;;27.67;32.71
21566;BME280;10943;48.738;9.320;2022-10-31T10:14:36;99183.84;;;27.99;31.21
21566;BME280;10943;48.738;9.320;2022-10-31T10:17:52;99182.31;;;28.35;30.83
21566;BME280;10943;48.738;9.320;2022-10-31T10:20:59;99181.47;;;28.35;30.45
21566;BME280;10943;48.738;9.320;2022-10-31T10:30:13;99184.16;;;28.19;31.32
21566;BME280;10943;48.738;9.320;2022-10-31T10:32:53;99180.03;;;28.99;30.05
21566;BME280;10943;48.738;9.320;2022-10-31T10:35:33;99174.34;;;29.65;30.62
21566;BME280;10943;48.738;9.320;2022-10-31T10:38:28;99173.22;;;29.41;29.71
21566;BME280;10943;48.738;9.320;2022-10-31T10:41:11;99166.44;;;29.45;29.85
21566;BME280;10943;48.738;9.320;2022-10-31T10:43:43;99163.97;;;28.94;30.06
21566;BME280;10943;48.738;9.320;2022-10-31T10:46:33;99160.06;;;28.16;30.98
21566;BME280;10943;48.738;9.320;2022-10-31T10:49:51;99164.56;;;27.41;32.59
21566;BME280;10943;48.738;9.320;2022-10-31T10:52:49;99155.19;;;26.90;32.94
21566;BME280;10943;48.738;9.320;2022-10-31T10:58:23;99151.31;;;25.73;35.25
21566;BME280;10943;48.738;9.320;2022-10-31T11:00:54;99152.78;;;25.18;36.16
21566;BME280;10943;48.738;9.320;2022-10-31T11:03:22;99137.78;;;25.26;36.06
21566;BME280;10943;48.738;9.320;2022-10-31T11:05:56;99128.22;;;24.96;36.38
21566;BME280;10943;48.738;9.320;2022-10-31T11:08:34;99134.03;;;24.73;37.46
21566;BME280;10943;48.738;9.320;2022-10-31T11:13:55;99124.50;;;24.69;36.79
21566;BME280;10943;48.738;9.320;2022-10-31T11:16:45;99115.84;;;24.43;37.16
21566;BME280;10943;48.738;9.320;2022-10-31T11:19:24;99114.56;;;24.98;36.54
21566;BME280;10943;48.738;9.320;2022-10-31T11:21:54;99109.56;;;25.30;36.04
21566;BME280;10943;48.738;9.320;2022-10-31T11:24:40;99105.56;;;26.31;35.11
21566;BME280;10943;48.738;9.320;2022-10-31T11:27:20;99095.19;;;26.74;34.03
21566;BME280;10943;48.738;9.320;2022-10-31T11:29:50;99086.97;;;26.81;33.47
21566;BME280;10943;48.738;9.320;2022-10-31T11:32:27;99087.72;;;27.11;33.47
21566;BME280;10943;48.738;9.320;2022-10-31T11:35:02;99081.22;;;25.47;34.81
21566;BME280;10943;48.738;9.320;2022-10-31T11:37:42;99080.09;;;26.13;34.31
21566;BME280;10943;48.738;9.320;2022-10-31T11:40:18;99073.94;;;26.71;33.15
21566;BME280;10943;48.738;9.320;2022-10-31T11:42:49;99077.63;;;25.85;34.48
21566;BME280;10943;48.738;9.320;2022-10-31T11:45:34;99067.00;;;26.21;33.95
21566;BME280;10943;48.738;9.320;2022-10-31T11:48:22;99055.34;;;27.25;33.34
21566;BME280;10943;48.738;9.320;2022-10-31T11:51:00;99056.09;;;28.01;32.01
21566;BME280;10943;48.738;9.320;2022-10-31T11:53:32;99058.53;;;28.61;30.78
21566;BME280;10943;48.738;9.320;2022-10-31T11:58:37;99047.53;;;28.01;31.79
21566;BME280;10943;48.738;9.320;2022-10-31T12:01:05;99051.38;;;28.05;31.71
21566;BME280;10943;48.738;9.320;2022-10-31T12:06:39;99040.69;;;28.39;31.24
21566;BME280;10943;48.738;9.320;2022-10-31T12:09:19;99048.72;;;28.00;31.74
21566;BME280;10943;48.738;9.320;2022-10-31T12:14:50;99029.81;;;27.95;31.60
21566;BME280;10943;48.738;9.320;2022-10-31T12:18:21;99029.16;;;28.11;31.04
21566;BME280;10943;48.738;9.320;2022-10-31T12:30:23;99010.22;;;26.93;32.27
21566;BME280;10943;48.738;9.320;2022-10-31T12:37:00;99003.75;;;26.33;33.78
21566;BME280;10943;48.738;9.320;2022-10-31T12:42:52;98989.59;;;25.03;36.40
21566;BME280;10943;48.738;9.320;2022-10-31T12:55:52;98965.75;;;25.04;36.83
21566;BME280;10943;48.738;9.320;2022-10-31T12:58:43;98954.00;;;24.44;37.87
21566;BME280;10943;48.738;9.320;2022-10-31T13:01:49;98952.50;;;24.29;38.32
21566;BME280;10943;48.738;9.320;2022-10-31T13:04:52;98950.91;;;24.81;37.29
21566;BME280;10943;48.738;9.320;2022-10-31T13:07:37;98952.03;;;24.53;37.88
21566;BME280;10943;48.738;9.320;2022-10-31T13:10:47;98929.88;;;24.82;37.43
21566;BME280;10943;48.738;9.320;2022-10-31T13:16:28;98939.56;;;24.72;37.64
21566;BME280;10943;48.738;9.320;2022-10-31T13:19:31;98941.06;;;24.78;37.74
21566;BME280;10943;48.738;9.320;2022-10-31T13:22:09;98936.72;;;24.72;38.30
21566;BME280;10943;48.738;9.320;2022-10-31T13:25:15;98932.72;;;24.73;38.22
21566;BME280;10943;48.738;9.320;2022-10-31T13:28:02;98922.50;;;25.07;37.82
21566;BME280;10943;48.738;9.320;2022-10-31T13:30:41;98918.69;;;24.85;37.84
21566;BME280;10943;48.738;9.320;2022-10-31T13:33:39;98917.50;;;24.43;39.14
21566;BME280;10943;48.738;9.320;2022-10-31T13:36:41;98905.19;;;24.47;39.35
21566;BME280;10943;48.738;9.320;2022-10-31T13:46:36;98914.84;;;24.99;38.71
21566;BME280;10943;48.738;9.320;2022-10-31T13:54:41;98906.00;;;26.04;36.21
21566;BME280;10943;48.738;9.320;2022-10-31T13:57:41;98900.88;;;25.89;36.33
21566;BME280;10943;48.738;9.320;2022-10-31T14:02:50;98892.28;;;25.11;38.24
21566;BME280;10943;48.738;9.320;2022-10-31T14:05:27;98899.63;;;25.68;36.68
21566;BME280;10943;48.738;9.320;2022-10-31T14:08:02;98892.81;;;25.91;36.01
21566;BME280;10943;48.738;9.320;2022-10-31T14:10:38;98870.22;;;25.73;36.08
21566;BME280;10943;48.738;9.320;2022-10-31T14:13:14;98871.56;;;25.19;37.40
21566;BME280;10943;48.738;9.320;2022-10-31T14:16:02;98880.75;;;25.16;37.60
21566;BME280;10943;48.738;9.320;2022-10-31T14:18:38;98875.47;;;24.97;37.78
21566;BME280;10943;48.738;9.320;2022-10-31T14:23:52;98882.44;;;25.17;37.54
21566;BME280;10943;48.738;9.320;2022-10-31T14:28:59;98868.88;;;25.23;37.49
21566;BME280;10943;48.738;9.320;2022-10-31T14:32:03;98859.59;;;25.14;37.64
21566;BME280;10943;48.738;9.320;2022-10-31T14:34:42;98853.69;;;25.28;37.03
21566;BME280;10943;48.738;9.320;2022-10-31T14:43:52;98864.50;;;24.52;38.73
21566;BME280;10943;48.738;9.320;2022-10-31T14:52:31;98863.19;;;23.56;41.35
21566;BME280;10943;48.738;9.320;2022-10-31T14:55:05;98862.56;;;23.28;42.16
21566;BME280;10943;48.738;9.320;2022-10-31T14:57:38;98859.94;;;23.09;42.53
21566;BME280;10943;48.738;9.320;2022-10-31T15:00:20;98857.56;;;23.02;42.91
21566;BME280;10943;48.738;9.320;2022-10-31T15:03:19;98850.28;;;23.10;42.53
21566;BME280;10943;48.738;9.320;2022-10-31T15:06:05;98845.88;;;23.18;42.50
21566;BME280;10943;48.738;9.320;2022-10-31T15:08:53;98847.91;;;23.26;42.43
21566;BME280;10943;48.738;9.320;2022-10-31T15:11:27;98841.09;;;22.96;42.69
21566;BME280;10943;48.738;9.320;2022-10-31T15:14:29;98834.81;;;22.76;44.23
21566;BME280;10943;48.738;9.320;2022-10-31T15:17:01;98837.84;;;22.57;44.88
21566;BME280;10943;48.738;9.320;2022-10-31T15:19:34;98847.47;;;22.56;44.92
21566;BME280;10943;48.738;9.320;2022-10-31T15:22:10;98833.31;;;22.47;45.14
21566;BME280;10943;48.738;9.320;2022-10-31T15:24:45;98836.38;;;22.37;45.65
21566;BME280;10943;48.738;9.320;2022-10-31T15:27:19;98840.78;;;22.29;45.82
21566;BME280;10943;48.738;9.320;2022-10-31T15:29:56;98830.09;;;22.03;46.34
21566;BME280;10943;48.738;9.320;2022-10-31T15:32:28;98837.25;;;21.73;47.29
21566;BME280;10943;48.738;9.320;2022-10-31T15:34:56;98835.16;;;21.51;48.40
21566;BME280;10943;48.738;9.320;2022-10-31T15:37:26;98832.66;;;21.07;49.68
21566;BME280;10943;48.738;9.320;2022-10-31T15:39:53;98822.44;;;21.25;49.49
21566;BME280;10943;48.738;9.320;2022-10-31T15:42:30;98829.06;;;20.88;50.82
21566;BME280;10943;48.738;9.320;2022-10-31T15:47:52;98823.47;;;20.36;52.68
21566;BME280;10943;48.738;9.320;2022-10-31T15:50:32;98817.53;;;20.37;52.39
21566;BME280;10943;48.738;9.320;2022-10-31T15:53:55;98811.63;;;20.20;53.13
21566;BME280;10943;48.738;9.320;2022-10-31T15:56:26;98819.88;;;19.97;53.42
21566;BME280;10943;48.738;9.320;2022-10-31T15:58:58;98826.00;;;19.80;53.65
21566;BME280;10943;48.738;9.320;2022-10-31T16:01:32;98821.41;;;19.65;54.39
21566;BME280;10943;48.738;9.320;2022-10-31T16:06:40;98822.16;;;19.27;55.96